sensor_id;sensor_type;location;lat;lon;timestamp;P1;durP1;ratioP1;P2;durP2;ratioP2
29500;SDS011;16450;50.288;10.966;2023-05-10T00:01:07;5.50;;;3.07;;
29500;SDS011;16450;50.288;10.966;2023-05-10T00:04:09;4.33;;;3.03;;
29500;SDS011;16450;50.288;10.966;2023-05-10T00:07:11;6.53;;;3.27;;
29500;SDS011;16450;50.288;10.966;2023-05-10T00:10:13;5.07;;;3.07;;
29500;SDS011;16450;50.288;10.966;2023-05-10T00:13:15;3.47;;;3.00;;
29500;SDS011;16450;50.288;10.966;2023-05-10T00:16:17;4.90;;;2.70;;
29500;SDS011;16450;50.288;10.966;2023-05-10T00:19:19;5.43;;;3.10;;
29500;SDS011;16450;50.288;10.966;2023-05-10T00:22:21;3.80;;;3.00;;
29500;SDS011;16450;50.288;10.966;2023-05-10T00:25:22;5.17;;;3.50;;
29500;SDS011;16450;50.288;10.966;2023-05-10T00:28:24;3.43;;;2.90;;
29500;SDS011;16450;50.288;10.966;2023-05-10T00:31:28;5.47;;;3.10;;
29500;SDS011;16450;50.288;10.966;2023-05-10T00:34:30;5.23;;;2.80;;
29500;SDS011;16450;50.288;10.966;2023-05-10T00:37:32;3.87;;;2.90;;
29500;SDS011;16450;50.288;10.966;2023-05-10T00:40:35;4.63;;;3.00;;
29500;SDS011;16450;50.288;10.966;2023-05-10T00:43:38;7.27;;;3.60;;
29500;SDS011;16450;50.288;10.966;2023-05-10T00:46:40;4.90;;;3.37;;
29500;SDS011;16450;50.288;10.966;2023-05-10T00:49:43;4.67;;;3.50;;
29500;SDS011;16450;50.288;10.966;2023-05-10T00:52:45;5.87;;;3.13;;
29500;SDS011;16450;50.288;10.966;2023-05-10T00:55:47;5.00;;;3.10;;
29500;SDS011;16450;50.288;10.966;2023-05-10T00:58:49;3.97;;;3.20;;
29500;SDS011;16450;50.288;10.966;2023-05-10T01:01:51;6.73;;;3.10;;
29500;SDS011;16450;50.288;10.966;2023-05-10T01:04:54;7.63;;;3.10;;
29500;SDS011;16450;50.288;10.966;2023-05-10T01:07:56;6.67;;;3.00;;
29500;SDS011;16450;50.288;10.966;2023-05-10T01:10:58;4.90;;;3.30;;
29500;SDS011;16450;50.288;10.966;2023-05-10T01:14:00;7.77;;;3.00;;
29500;SDS011;16450;50.288;10.966;2023-05-10T01:17:03;5.00;;;3.33;;
29500;SDS011;16450;50.288;10.966;2023-05-10T01:20:07;5.63;;;2.90;;
29500;SDS011;16450;50.288;10.966;2023-05-10T01:23:20;5.13;;;3.10;;
29500;SDS011;16450;50.288;10.966;2023-05-10T01:36:31;4.03;;;2.67;;
29500;SDS011;16450;50.288;10.966;2023-05-10T01:39:45;5.80;;;3.37;;
29500;SDS011;16450;50.288;10.966;2023-05-10T01:42:56;3.97;;;3.20;;
29500;SDS011;16450;50.288;10.966;2023-05-10T01:46:09;4.13;;;3.00;;
29500;SDS011;16450;50.288;10.966;2023-05-10T01:49:23;6.70;;;3.20;;
29500;SDS011;16450;50.288;10.966;2023-05-10T01:52:32;5.07;;;3.30;;
29500;SDS011;16450;50.288;10.966;2023-05-10T01:55:41;3.57;;;3.00;;
29500;SDS011;16450;50.288;10.966;2023-05-10T01:58:47;4.20;;;3.13;;
29500;SDS011;16450;50.288;10.966;2023-05-10T02:01:51;5.47;;;3.20;;
29500;SDS011;16450;50.288;10.966;2023-05-10T02:04:54;5.93;;;3.47;;
29500;SDS011;16450;50.288;10.966;2023-05-10T02:07:58;3.57;;;2.80;;
29500;SDS011;16450;50.288;10.966;2023-05-10T02:11:02;4.10;;;3.43;;
29500;SDS011;16450;50.288;10.966;2023-05-10T02:14:07;4.30;;;3.27;;
29500;SDS011;16450;50.288;10.966;2023-05-10T02:17:12;4.13;;;3.07;;
29500;SDS011;16450;50.288;10.966;2023-05-10T02:20:15;4.57;;;3.80;;
29500;SDS011;16450;50.288;10.966;2023-05-10T02:23:18;4.80;;;3.40;;
29500;SDS011;16450;50.288;10.966;2023-05-10T02:26:22;6.27;;;3.40;;
29500;SDS011;16450;50.288;10.966;2023-05-10T02:29:26;6.53;;;3.47;;
29500;SDS011;16450;50.288;10.966;2023-05-10T02:32:29;4.50;;;3.30;;
29500;SDS011;16450;50.288;10.966;2023-05-10T02:35:32;6.83;;;3.30;;
29500;SDS011;16450;50.288;10.966;2023-05-10T02:38:34;8.53;;;3.40;;
29500;SDS011;16450;50.288;10.966;2023-05-10T02:41:38;3.50;;;3.03;;
29500;SDS011;16450;50.288;10.966;2023-05-10T02:44:42;5.27;;;3.50;;
29500;SDS011;16450;50.288;10.966;2023-05-10T02:47:47;6.50;;;3.20;;
29500;SDS011;16450;50.288;10.966;2023-05-10T02:50:50;4.97;;;3.10;;
29500;SDS011;16450;50.288;10.966;2023-05-10T02:53:53;6.20;;;3.43;;
29500;SDS011;16450;50.288;10.966;2023-05-10T02:56:58;5.07;;;3.40;;
29500;SDS011;16450;50.288;10.966;2023-05-10T03:00:02;4.60;;;2.77;;
29500;SDS011;16450;50.288;10.966;2023-05-10T03:03:04;3.80;;;3.30;;
29500;SDS011;16450;50.288;10.966;2023-05-10T03:06:06;5.40;;;3.40;;
29500;SDS011;16450;50.288;10.966;2023-05-10T03:09:08;6.40;;;3.20;;
29500;SDS011;16450;50.288;10.966;2023-05-10T03:19:06;4.90;;;3.53;;
29500;SDS011;16450;50.288;10.966;2023-05-10T03:22:21;4.00;;;3.17;;
29500;SDS011;16450;50.288;10.966;2023-05-10T03:25:31;5.53;;;3.80;;
29500;SDS011;16450;50.288;10.966;2023-05-10T03:28:34;6.80;;;3.40;;
29500;SDS011;16450;50.288;10.966;2023-05-10T03:31:38;5.53;;;3.57;;
29500;SDS011;16450;50.288;10.966;2023-05-10T03:34:43;5.47;;;3.47;;
29500;SDS011;16450;50.288;10.966;2023-05-10T03:37:45;9.13;;;3.80;;
29500;SDS011;16450;50.288;10.966;2023-05-10T03:40:48;6.57;;;3.90;;
29500;SDS011;16450;50.288;10.966;2023-05-10T03:43:49;7.00;;;4.07;;
29500;SDS011;16450;50.288;10.966;2023-05-10T03:46:51;6.77;;;3.87;;
29500;SDS011;16450;50.288;10.966;2023-05-10T03:49:53;5.33;;;3.83;;
29500;SDS011;16450;50.288;10.966;2023-05-10T03:52:55;7.17;;;3.77;;
29500;SDS011;16450;50.288;10.966;2023-05-10T03:55:57;6.07;;;3.90;;
29500;SDS011;16450;50.288;10.966;2023-05-10T03:58:58;6.87;;;4.20;;
29500;SDS011;16450;50.288;10.966;2023-05-10T04:02:00;4.77;;;4.07;;
29500;SDS011;16450;50.288;10.966;2023-05-10T04:05:02;5.97;;;4.00;;
29500;SDS011;16450;50.288;10.966;2023-05-10T04:08:04;9.10;;;4.20;;
29500;SDS011;16450;50.288;10.966;2023-05-10T04:11:07;7.80;;;4.70;;
29500;SDS011;16450;50.288;10.966;2023-05-10T04:14:10;8.27;;;4.30;;
29500;SDS011;16450;50.288;10.966;2023-05-10T04:17:12;6.87;;;4.67;;
29500;SDS011;16450;50.288;10.966;2023-05-10T04:20:14;7.87;;;4.93;;
29500;SDS011;16450;50.288;10.966;2023-05-10T04:23:16;6.57;;;4.83;;
29500;SDS011;16450;50.288;10.966;2023-05-10T04:26:18;6.70;;;4.90;;
29500;SDS011;16450;50.288;10.966;2023-05-10T04:29:20;7.33;;;5.17;;
29500;SDS011;16450;50.288;10.966;2023-05-10T04:32:22;6.90;;;4.90;;
29500;SDS011;16450;50.288;10.966;2023-05-10T04:35:24;6.53;;;5.00;;
29500;SDS011;16450;50.288;10.966;2023-05-10T04:38:26;7.63;;;5.13;;
29500;SDS011;16450;50.288;10.966;2023-05-10T04:41:28;7.03;;;4.83;;
29500;SDS011;16450;50.288;10.966;2023-05-10T04:44:30;6.87;;;5.60;;
29500;SDS011;16450;50.288;10.966;2023-05-10T04:47:32;9.67;;;5.80;;
29500;SDS011;16450;50.288;10.966;2023-05-10T04:50:34;6.90;;;5.10;;
29500;SDS011;16450;50.288;10.966;2023-05-10T04:53:35;8.87;;;5.27;;
29500;SDS011;16450;50.288;10.966;2023-05-10T04:56:37;9.93;;;5.50;;
29500;SDS011;16450;50.288;10.966;2023-05-10T04:59:39;12.30;;;5.80;;
29500;SDS011;16450;50.288;10.966;2023-05-10T05:02:45;10.00;;;5.43;;
29500;SDS011;16450;50.288;10.966;2023-05-10T05:05:47;7.57;;;5.40;;
29500;SDS011;16450;50.288;10.966;2023-05-10T05:08:49;10.67;;;6.40;;
29500;SDS011;16450;50.288;10.966;2023-05-10T05:11:51;7.50;;;5.40;;
29500;SDS011;16450;50.288;10.966;2023-05-10T05:14:53;7.77;;;5.43;;
29500;SDS011;16450;50.288;10.966;2023-05-10T05:17:55;8.30;;;5.33;;
29500;SDS011;16450;50.288;10.966;2023-05-10T05:20:57;9.57;;;6.20;;
29500;SDS011;16450;50.288;10.966;2023-05-10T05:23:59;9.57;;;5.77;;
29500;SDS011;16450;50.288;10.966;2023-05-10T05:27:01;7.23;;;5.27;;
29500;SDS011;16450;50.288;10.966;2023-05-10T05:30:03;9.33;;;5.60;;
29500;SDS011;16450;50.288;10.966;2023-05-10T05:33:06;12.17;;;5.57;;
29500;SDS011;16450;50.288;10.966;2023-05-10T05:36:08;8.60;;;5.80;;
29500;SDS011;16450;50.288;10.966;2023-05-10T05:39:11;9.57;;;5.90;;
29500;SDS011;16450;50.288;10.966;2023-05-10T05:42:13;8.87;;;5.73;;
29500;SDS011;16450;50.288;10.966;2023-05-10T05:45:17;10.53;;;5.87;;
29500;SDS011;16450;50.288;10.966;2023-05-10T05:48:20;9.23;;;5.67;;
29500;SDS011;16450;50.288;10.966;2023-05-10T05:51:23;10.07;;;5.83;;
29500;SDS011;16450;50.288;10.966;2023-05-10T05:54:26;10.53;;;5.63;;
29500;SDS011;16450;50.288;10.966;2023-05-10T05:57:29;3.30;;;1.93;;
29500;SDS011;16450;50.288;10.966;2023-05-10T06:00:31;1.80;;;1.47;;
29500;SDS011;16450;50.288;10.966;2023-05-10T06:03:34;2.47;;;1.40;;
29500;SDS011;16450;50.288;10.966;2023-05-10T06:06:36;0.83;;;0.80;;
29500;SDS011;16450;50.288;10.966;2023-05-10T06:09:38;0.80;;;0.80;;
29500;SDS011;16450;50.288;10.966;2023-05-10T06:12:41;1.43;;;0.90;;
29500;SDS011;16450;50.288;10.966;2023-05-10T06:15:44;1.00;;;0.60;;
29500;SDS011;16450;50.288;10.966;2023-05-10T06:18:45;0.83;;;0.50;;
29500;SDS011;16450;50.288;10.966;2023-05-10T06:21:47;0.80;;;0.50;;
29500;SDS011;16450;50.288;10.966;2023-05-10T06:24:49;0.30;;;0.30;;
29500;SDS011;16450;50.288;10.966;2023-05-10T06:27:51;0.97;;;0.40;;
29500;SDS011;16450;50.288;10.966;2023-05-10T06:30:59;3.13;;;0.30;;
29500;SDS011;16450;50.288;10.966;2023-05-10T06:34:01;0.93;;;0.20;;
29500;SDS011;16450;50.288;10.966;2023-05-10T06:37:03;1.17;;;0.30;;
29500;SDS011;16450;50.288;10.966;2023-05-10T06:40:05;2.87;;;0.33;;
29500;SDS011;16450;50.288;10.966;2023-05-10T06:43:08;0.60;;;0.20;;
29500;SDS011;16450;50.288;10.966;2023-05-10T06:46:10;2.20;;;0.30;;
29500;SDS011;16450;50.288;10.966;2023-05-10T06:49:11;0.87;;;0.60;;
29500;SDS011;16450;50.288;10.966;2023-05-10T06:52:13;0.60;;;0.30;;
29500;SDS011;16450;50.288;10.966;2023-05-10T06:55:15;0.20;;;0.20;;
29500;SDS011;16450;50.288;10.966;2023-05-10T06:58:17;1.57;;;0.30;;
29500;SDS011;16450;50.288;10.966;2023-05-10T07:01:19;0.57;;;0.20;;
29500;SDS011;16450;50.288;10.966;2023-05-10T07:04:21;0.70;;;0.40;;
29500;SDS011;16450;50.288;10.966;2023-05-10T07:07:23;1.60;;;0.30;;
29500;SDS011;16450;50.288;10.966;2023-05-10T07:10:25;0.30;;;0.30;;
29500;SDS011;16450;50.288;10.966;2023-05-10T07:13:27;1.40;;;0.30;;
29500;SDS011;16450;50.288;10.966;2023-05-10T07:16:29;0.20;;;0.20;;
29500;SDS011;16450;50.288;10.966;2023-05-10T07:19:31;2.63;;;0.20;;
29500;SDS011;16450;50.288;10.966;2023-05-10T07:22:35;0.20;;;0.20;;
29500;SDS011;16450;50.288;10.966;2023-05-10T07:25:37;0.63;;;0.30;;
29500;SDS011;16450;50.288;10.966;2023-05-10T07:28:39;0.30;;;0.30;;
29500;SDS011;16450;50.288;10.966;2023-05-10T07:31:41;0.30;;;0.30;;
29500;SDS011;16450;50.288;10.966;2023-05-10T07:34:43;0.33;;;0.30;;
29500;SDS011;16450;50.288;10.966;2023-05-10T07:37:45;0.63;;;0.30;;
29500;SDS011;16450;50.288;10.966;2023-05-10T07:40:47;0.77;;;0.30;;
29500;SDS011;16450;50.288;10.966;2023-05-10T07:43:49;0.30;;;0.30;;
29500;SDS011;16450;50.288;10.966;2023-05-10T07:46:51;0.30;;;0.30;;
29500;SDS011;16450;50.288;10.966;2023-05-10T07:49:53;0.50;;;0.30;;
29500;SDS011;16450;50.288;10.966;2023-05-10T07:52:56;0.50;;;0.50;;
29500;SDS011;16450;50.288;10.966;2023-05-10T07:55:58;0.40;;;0.40;;
29500;SDS011;16450;50.288;10.966;2023-05-10T07:59:00;0.33;;;0.33;;
29500;SDS011;16450;50.288;10.966;2023-05-10T08:02:09;0.30;;;0.30;;
29500;SDS011;16450;50.288;10.966;2023-05-10T08:05:11;0.87;;;0.40;;
29500;SDS011;16450;50.288;10.966;2023-05-10T08:08:14;0.40;;;0.40;;
29500;SDS011;16450;50.288;10.966;2023-05-10T08:11:16;0.60;;;0.43;;
29500;SDS011;16450;50.288;10.966;2023-05-10T08:14:18;0.40;;;0.40;;
29500;SDS011;16450;50.288;10.966;2023-05-10T08:17:20;0.40;;;0.40;;
29500;SDS011;16450;50.288;10.966;2023-05-10T08:20:24;1.60;;;0.60;;
29500;SDS011;16450;50.288;10.966;2023-05-10T08:23:26;0.43;;;0.43;;
29500;SDS011;16450;50.288;10.966;2023-05-10T08:26:28;3.00;;;0.50;;
29500;SDS011;16450;50.288;10.966;2023-05-10T08:29:30;1.33;;;0.37;;
29500;SDS011;16450;50.288;10.966;2023-05-10T08:32:46;0.43;;;0.40;;
29500;SDS011;16450;50.288;10.966;2023-05-10T08:35:48;2.00;;;0.50;;
29500;SDS011;16450;50.288;10.966;2023-05-10T08:38:50;0.50;;;0.50;;
29500;SDS011;16450;50.288;10.966;2023-05-10T08:41:53;0.60;;;0.50;;
29500;SDS011;16450;50.288;10.966;2023-05-10T08:44:58;2.30;;;0.73;;
29500;SDS011;16450;50.288;10.966;2023-05-10T08:48:04;3.37;;;0.50;;
29500;SDS011;16450;50.288;10.966;2023-05-10T08:51:07;0.83;;;0.70;;
29500;SDS011;16450;50.288;10.966;2023-05-10T08:54:10;0.67;;;0.60;;
29500;SDS011;16450;50.288;10.966;2023-05-10T08:57:13;0.60;;;0.60;;
29500;SDS011;16450;50.288;10.966;2023-05-10T09:00:15;0.67;;;0.63;;
29500;SDS011;16450;50.288;10.966;2023-05-10T09:03:18;0.87;;;0.50;;
29500;SDS011;16450;50.288;10.966;2023-05-10T09:06:20;1.77;;;0.53;;
29500;SDS011;16450;50.288;10.966;2023-05-10T09:09:22;1.60;;;0.60;;
29500;SDS011;16450;50.288;10.966;2023-05-10T09:12:25;0.50;;;0.50;;
29500;SDS011;16450;50.288;10.966;2023-05-10T09:15:28;0.50;;;0.50;;
29500;SDS011;16450;50.288;10.966;2023-05-10T09:18:30;1.50;;;0.47;;
29500;SDS011;16450;50.288;10.966;2023-05-10T09:21:32;1.17;;;0.50;;
29500;SDS011;16450;50.288;10.966;2023-05-10T09:24:39;0.47;;;0.43;;
29500;SDS011;16450;50.288;10.966;2023-05-10T09:27:47;1.30;;;0.40;;
29500;SDS011;16450;50.288;10.966;2023-05-10T09:30:52;3.57;;;0.60;;
29500;SDS011;16450;50.288;10.966;2023-05-10T09:33:56;1.53;;;0.50;;
29500;SDS011;16450;50.288;10.966;2023-05-10T09:36:59;1.40;;;0.50;;
29500;SDS011;16450;50.288;10.966;2023-05-10T09:40:13;2.10;;;0.50;;
29500;SDS011;16450;50.288;10.966;2023-05-10T09:43:16;1.80;;;0.57;;
29500;SDS011;16450;50.288;10.966;2023-05-10T09:46:18;1.20;;;0.80;;
29500;SDS011;16450;50.288;10.966;2023-05-10T09:49:21;0.60;;;0.60;;
29500;SDS011;16450;50.288;10.966;2023-05-10T09:52:23;0.50;;;0.40;;
29500;SDS011;16450;50.288;10.966;2023-05-10T09:55:26;2.43;;;0.60;;
29500;SDS011;16450;50.288;10.966;2023-05-10T09:58:41;0.97;;;0.50;;
29500;SDS011;16450;50.288;10.966;2023-05-10T10:01:48;0.50;;;0.50;;
29500;SDS011;16450;50.288;10.966;2023-05-10T10:04:51;1.30;;;0.50;;
29500;SDS011;16450;50.288;10.966;2023-05-10T10:07:54;0.70;;;0.60;;
29500;SDS011;16450;50.288;10.966;2023-05-10T10:10:58;2.60;;;0.57;;
29500;SDS011;16450;50.288;10.966;2023-05-10T10:14:00;0.43;;;0.43;;
29500;SDS011;16450;50.288;10.966;2023-05-10T10:17:02;2.27;;;0.60;;
29500;SDS011;16450;50.288;10.966;2023-05-10T10:20:09;1.00;;;0.60;;
29500;SDS011;16450;50.288;10.966;2023-05-10T10:23:12;0.43;;;0.33;;
29500;SDS011;16450;50.288;10.966;2023-05-10T10:26:17;0.67;;;0.67;;
29500;SDS011;16450;50.288;10.966;2023-05-10T10:29:38;2.10;;;0.43;;
29500;SDS011;16450;50.288;10.966;2023-05-10T10:33:06;1.10;;;0.40;;
29500;SDS011;16450;50.288;10.966;2023-05-10T10:36:46;0.77;;;0.50;;
29500;SDS011;16450;50.288;10.966;2023-05-10T10:39:49;0.63;;;0.60;;
29500;SDS011;16450;50.288;10.966;2023-05-10T10:42:51;0.50;;;0.43;;
29500;SDS011;16450;50.288;10.966;2023-05-10T10:49:16;0.43;;;0.43;;
29500;SDS011;16450;50.288;10.966;2023-05-10T10:52:27;2.60;;;0.77;;
29500;SDS011;16450;50.288;10.966;2023-05-10T10:55:31;1.43;;;0.60;;
29500;SDS011;16450;50.288;10.966;2023-05-10T10:58:33;0.73;;;0.70;;
29500;SDS011;16450;50.288;10.966;2023-05-10T11:01:36;1.70;;;0.70;;
29500;SDS011;16450;50.288;10.966;2023-05-10T11:04:41;3.70;;;0.93;;
29500;SDS011;16450;50.288;10.966;2023-05-10T11:07:51;0.70;;;0.70;;
29500;SDS011;16450;50.288;10.966;2023-05-10T11:14:04;1.50;;;0.77;;
29500;SDS011;16450;50.288;10.966;2023-05-10T11:20:39;1.17;;;0.73;;
29500;SDS011;16450;50.288;10.966;2023-05-10T11:26:50;1.67;;;1.10;;
29500;SDS011;16450;50.288;10.966;2023-05-10T11:29:53;1.70;;;1.27;;
29500;SDS011;16450;50.288;10.966;2023-05-10T11:32:54;1.10;;;1.00;;
29500;SDS011;16450;50.288;10.966;2023-05-10T11:35:57;1.33;;;1.20;;
29500;SDS011;16450;50.288;10.966;2023-05-10T11:38:58;1.17;;;1.10;;
29500;SDS011;16450;50.288;10.966;2023-05-10T11:42:00;1.43;;;0.97;;
29500;SDS011;16450;50.288;10.966;2023-05-10T11:45:02;1.07;;;0.93;;
29500;SDS011;16450;50.288;10.966;2023-05-10T11:48:05;1.40;;;1.30;;
29500;SDS011;16450;50.288;10.966;2023-05-10T11:51:07;2.27;;;1.10;;
29500;SDS011;16450;50.288;10.966;2023-05-10T11:54:10;0.97;;;0.97;;
29500;SDS011;16450;50.288;10.966;2023-05-10T11:57:12;3.20;;;1.23;;
29500;SDS011;16450;50.288;10.966;2023-05-10T12:00:14;0.93;;;0.90;;
29500;SDS011;16450;50.288;10.966;2023-05-10T12:03:17;0.80;;;0.80;;
29500;SDS011;16450;50.288;10.966;2023-05-10T12:06:19;2.07;;;0.80;;
29500;SDS011;16450;50.288;10.966;2023-05-10T12:09:22;1.20;;;0.93;;
29500;SDS011;16450;50.288;10.966;2023-05-10T12:12:35;1.67;;;1.13;;
29500;SDS011;16450;50.288;10.966;2023-05-10T12:15:43;1.87;;;1.03;;
29500;SDS011;16450;50.288;10.966;2023-05-10T12:18:49;1.15;;;1.08;;
29500;SDS011;16450;50.288;10.966;2023-05-10T12:21:52;1.30;;;1.20;;
29500;SDS011;16450;50.288;10.966;2023-05-10T12:24:58;1.38;;;1.27;;
29500;SDS011;16450;50.288;10.966;2023-05-10T12:28:02;1.67;;;1.10;;
29500;SDS011;16450;50.288;10.966;2023-05-10T12:31:05;1.40;;;1.30;;
29500;SDS011;16450;50.288;10.966;2023-05-10T12:34:08;1.40;;;1.00;;
29500;SDS011;16450;50.288;10.966;2023-05-10T12:37:10;1.95;;;0.90;;
29500;SDS011;16450;50.288;10.966;2023-05-10T12:40:13;0.83;;;0.80;;
29500;SDS011;16450;50.288;10.966;2023-05-10T12:43:16;0.90;;;0.90;;
29500;SDS011;16450;50.288;10.966;2023-05-10T12:46:18;0.93;;;0.93;;
29500;SDS011;16450;50.288;10.966;2023-05-10T12:49:20;0.90;;;0.90;;
29500;SDS011;16450;50.288;10.966;2023-05-10T12:52:22;1.20;;;1.10;;
29500;SDS011;16450;50.288;10.966;2023-05-10T12:55:24;2.50;;;1.23;;
29500;SDS011;16450;50.288;10.966;2023-05-10T12:58:26;1.40;;;1.30;;
29500;SDS011;16450;50.288;10.966;2023-05-10T13:01:35;2.33;;;1.67;;
29500;SDS011;16450;50.288;10.966;2023-05-10T13:04:38;1.60;;;1.50;;
29500;SDS011;16450;50.288;10.966;2023-05-10T13:07:41;2.30;;;1.90;;
29500;SDS011;16450;50.288;10.966;2023-05-10T13:10:45;2.93;;;1.73;;
29500;SDS011;16450;50.288;10.966;2023-05-10T13:13:47;3.40;;;2.20;;
29500;SDS011;16450;50.288;10.966;2023-05-10T13:16:49;2.90;;;1.80;;
29500;SDS011;16450;50.288;10.966;2023-05-10T13:19:51;2.83;;;1.50;;
29500;SDS011;16450;50.288;10.966;2023-05-10T13:22:53;2.37;;;1.20;;
29500;SDS011;16450;50.288;10.966;2023-05-10T13:25:54;1.10;;;1.00;;
29500;SDS011;16450;50.288;10.966;2023-05-10T13:28:56;1.07;;;0.97;;
29500;SDS011;16450;50.288;10.966;2023-05-10T13:31:58;1.40;;;1.30;;
29500;SDS011;16450;50.288;10.966;2023-05-10T13:35:01;1.10;;;1.00;;
29500;SDS011;16450;50.288;10.966;2023-05-10T13:38:04;1.10;;;1.00;;
29500;SDS011;16450;50.288;10.966;2023-05-10T13:41:09;1.20;;;1.10;;
29500;SDS011;16450;50.288;10.966;2023-05-10T13:44:12;1.27;;;1.17;;
29500;SDS011;16450;50.288;10.966;2023-05-10T13:47:15;3.20;;;1.60;;
29500;SDS011;16450;50.288;10.966;2023-05-10T13:50:17;1.33;;;1.23;;
29500;SDS011;16450;50.288;10.966;2023-05-10T13:53:19;1.67;;;1.37;;
29500;SDS011;16450;50.288;10.966;2023-05-10T13:56:22;1.80;;;1.40;;
29500;SDS011;16450;50.288;10.966;2023-05-10T13:59:23;1.50;;;1.40;;
29500;SDS011;16450;50.288;10.966;2023-05-10T14:02:25;1.37;;;1.20;;
29500;SDS011;16450;50.288;10.966;2023-05-10T14:05:28;1.60;;;1.40;;
29500;SDS011;16450;50.288;10.966;2023-05-10T14:08:30;2.13;;;1.40;;
29500;SDS011;16450;50.288;10.966;2023-05-10T14:11:32;1.50;;;1.40;;
29500;SDS011;16450;50.288;10.966;2023-05-10T14:14:34;2.47;;;1.60;;
29500;SDS011;16450;50.288;10.966;2023-05-10T14:17:35;1.95;;;1.65;;
29500;SDS011;16450;50.288;10.966;2023-05-10T14:20:37;2.78;;;1.67;;
29500;SDS011;16450;50.288;10.966;2023-05-10T14:23:39;1.90;;;1.63;;
29500;SDS011;16450;50.288;10.966;2023-05-10T14:26:41;2.10;;;1.90;;
29500;SDS011;16450;50.288;10.966;2023-05-10T14:29:43;2.45;;;2.25;;
29500;SDS011;16450;50.288;10.966;2023-05-10T14:32:45;2.33;;;2.13;;
29500;SDS011;16450;50.288;10.966;2023-05-10T14:35:47;3.65;;;1.60;;
29500;SDS011;16450;50.288;10.966;2023-05-10T14:38:49;2.50;;;1.50;;
29500;SDS011;16450;50.288;10.966;2023-05-10T14:41:51;3.03;;;1.20;;
29500;SDS011;16450;50.288;10.966;2023-05-10T14:44:53;1.48;;;1.10;;
29500;SDS011;16450;50.288;10.966;2023-05-10T14:47:55;1.10;;;1.00;;
29500;SDS011;16450;50.288;10.966;2023-05-10T14:50:58;1.73;;;1.30;;
29500;SDS011;16450;50.288;10.966;2023-05-10T14:53:59;1.48;;;1.38;;
29500;SDS011;16450;50.288;10.966;2023-05-10T14:57:01;1.60;;;1.50;;
29500;SDS011;16450;50.288;10.966;2023-05-10T15:00:03;1.40;;;1.30;;
29500;SDS011;16450;50.288;10.966;2023-05-10T15:03:06;1.50;;;1.40;;
29500;SDS011;16450;50.288;10.966;2023-05-10T15:06:09;4.10;;;1.53;;
29500;SDS011;16450;50.288;10.966;2023-05-10T15:09:11;3.97;;;0.95;;
29500;SDS011;16450;50.288;10.966;2023-05-10T15:12:13;1.70;;;1.50;;
29500;SDS011;16450;50.288;10.966;2023-05-10T15:15:14;1.70;;;1.60;;
29500;SDS011;16450;50.288;10.966;2023-05-10T15:18:17;1.60;;;1.30;;
29500;SDS011;16450;50.288;10.966;2023-05-10T15:21:19;3.73;;;1.50;;
29500;SDS011;16450;50.288;10.966;2023-05-10T15:24:21;1.53;;;1.40;;
29500;SDS011;16450;50.288;10.966;2023-05-10T15:27:23;3.37;;;1.00;;
29500;SDS011;16450;50.288;10.966;2023-05-10T15:30:25;1.57;;;1.27;;
29500;SDS011;16450;50.288;10.966;2023-05-10T15:33:26;1.10;;;1.00;;
29500;SDS011;16450;50.288;10.966;2023-05-10T15:36:28;4.03;;;0.80;;
29500;SDS011;16450;50.288;10.966;2023-05-10T15:39:30;0.67;;;0.67;;
29500;SDS011;16450;50.288;10.966;2023-05-10T15:42:32;1.50;;;0.80;;
29500;SDS011;16450;50.288;10.966;2023-05-10T15:45:34;1.10;;;1.00;;
29500;SDS011;16450;50.288;10.966;2023-05-10T15:48:37;1.70;;;0.80;;
29500;SDS011;16450;50.288;10.966;2023-05-10T15:51:40;1.63;;;1.10;;
29500;SDS011;16450;50.288;10.966;2023-05-10T15:54:42;1.87;;;1.20;;
29500;SDS011;16450;50.288;10.966;2023-05-10T15:57:44;1.87;;;1.30;;
29500;SDS011;16450;50.288;10.966;2023-05-10T16:00:46;1.10;;;1.07;;
29500;SDS011;16450;50.288;10.966;2023-05-10T16:03:48;2.10;;;1.07;;
29500;SDS011;16450;50.288;10.966;2023-05-10T16:06:50;2.47;;;1.30;;
29500;SDS011;16450;50.288;10.966;2023-05-10T16:09:52;2.03;;;1.57;;
29500;SDS011;16450;50.288;10.966;2023-05-10T16:12:53;1.57;;;1.40;;
29500;SDS011;16450;50.288;10.966;2023-05-10T16:15:55;5.33;;;3.10;;
29500;SDS011;16450;50.288;10.966;2023-05-10T16:18:58;3.30;;;2.10;;
29500;SDS011;16450;50.288;10.966;2023-05-10T16:22:01;2.60;;;1.87;;
29500;SDS011;16450;50.288;10.966;2023-05-10T16:25:03;2.77;;;1.57;;
29500;SDS011;16450;50.288;10.966;2023-05-10T16:28:06;2.30;;;1.47;;
29500;SDS011;16450;50.288;10.966;2023-05-10T16:31:08;2.00;;;1.40;;
29500;SDS011;16450;50.288;10.966;2023-05-10T16:34:10;1.70;;;1.30;;
29500;SDS011;16450;50.288;10.966;2023-05-10T16:37:12;4.73;;;1.20;;
29500;SDS011;16450;50.288;10.966;2023-05-10T16:40:13;3.07;;;1.40;;
29500;SDS011;16450;50.288;10.966;2023-05-10T16:43:15;1.57;;;1.27;;
29500;SDS011;16450;50.288;10.966;2023-05-10T16:46:17;2.30;;;1.20;;
29500;SDS011;16450;50.288;10.966;2023-05-10T16:49:19;1.90;;;1.27;;
29500;SDS011;16450;50.288;10.966;2023-05-10T16:52:22;1.30;;;1.20;;
29500;SDS011;16450;50.288;10.966;2023-05-10T16:55:24;1.73;;;1.40;;
29500;SDS011;16450;50.288;10.966;2023-05-10T16:58:26;2.97;;;1.40;;
29500;SDS011;16450;50.288;10.966;2023-05-10T17:01:28;1.50;;;1.30;;
29500;SDS011;16450;50.288;10.966;2023-05-10T17:04:30;2.70;;;1.40;;
29500;SDS011;16450;50.288;10.966;2023-05-10T17:07:32;1.60;;;1.40;;
29500;SDS011;16450;50.288;10.966;2023-05-10T17:10:33;2.33;;;1.60;;
29500;SDS011;16450;50.288;10.966;2023-05-10T17:13:36;2.80;;;1.43;;
29500;SDS011;16450;50.288;10.966;2023-05-10T17:16:39;1.77;;;1.40;;
29500;SDS011;16450;50.288;10.966;2023-05-10T17:19:44;2.33;;;1.97;;
29500;SDS011;16450;50.288;10.966;2023-05-10T17:25:48;3.83;;;2.13;;
29500;SDS011;16450;50.288;10.966;2023-05-10T17:28:51;2.07;;;1.60;;
29500;SDS011;16450;50.288;10.966;2023-05-10T17:31:54;1.80;;;1.50;;
29500;SDS011;16450;50.288;10.966;2023-05-10T17:34:56;3.30;;;1.60;;
29500;SDS011;16450;50.288;10.966;2023-05-10T17:37:58;4.97;;;1.47;;
29500;SDS011;16450;50.288;10.966;2023-05-10T17:41:00;1.73;;;1.40;;
29500;SDS011;16450;50.288;10.966;2023-05-10T17:44:02;2.90;;;1.40;;
29500;SDS011;16450;50.288;10.966;2023-05-10T17:47:04;3.57;;;1.97;;
29500;SDS011;16450;50.288;10.966;2023-05-10T17:50:07;2.60;;;1.60;;
29500;SDS011;16450;50.288;10.966;2023-05-10T17:53:10;2.43;;;1.60;;
29500;SDS011;16450;50.288;10.966;2023-05-10T17:56:12;6.30;;;2.40;;
29500;SDS011;16450;50.288;10.966;2023-05-10T17:59:14;3.63;;;2.60;;
29500;SDS011;16450;50.288;10.966;2023-05-10T18:02:16;2.90;;;2.00;;
29500;SDS011;16450;50.288;10.966;2023-05-10T18:05:18;3.33;;;2.53;;
29500;SDS011;16450;50.288;10.966;2023-05-10T18:08:21;6.67;;;2.47;;
29500;SDS011;16450;50.288;10.966;2023-05-10T18:11:25;3.03;;;2.50;;
29500;SDS011;16450;50.288;10.966;2023-05-10T18:14:27;5.40;;;3.00;;
29500;SDS011;16450;50.288;10.966;2023-05-10T18:17:41;5.13;;;2.60;;
29500;SDS011;16450;50.288;10.966;2023-05-10T18:20:43;2.87;;;2.57;;
29500;SDS011;16450;50.288;10.966;2023-05-10T18:23:46;6.47;;;3.70;;
29500;SDS011;16450;50.288;10.966;2023-05-10T18:26:48;4.50;;;3.03;;
29500;SDS011;16450;50.288;10.966;2023-05-10T18:29:50;3.30;;;2.53;;
29500;SDS011;16450;50.288;10.966;2023-05-10T18:32:52;6.27;;;2.67;;
29500;SDS011;16450;50.288;10.966;2023-05-10T18:35:55;14.10;;;8.07;;
29500;SDS011;16450;50.288;10.966;2023-05-10T18:38:57;10.63;;;6.17;;